createdAt,value
2017-07-04T00:01:58.784Z,15.00
2017-07-04T00:04:26.226Z,15.10
2017-07-04T00:06:53.708Z,15.10
2017-07-04T00:09:21.143Z,15.10
2017-07-04T00:11:48.596Z,15.10
2017-07-04T00:14:16.228Z,15.10
2017-07-04T00:16:43.680Z,15.10
2017-07-04T00:19:11.134Z,15.00
2017-07-04T00:21:38.611Z,14.90
2017-07-04T00:24:06.057Z,14.90
2017-07-04T00:26:33.498Z,14.70
2017-07-04T00:29:00.949Z,14.80
2017-07-04T00:31:28.379Z,14.80
2017-07-04T00:33:55.820Z,14.60
2017-07-04T00:36:23.440Z,14.60
2017-07-04T00:38:50.879Z,14.60
2017-07-04T00:41:18.331Z,14.50
2017-07-04T00:43:45.888Z,14.50
2017-07-04T00:46:13.331Z,14.40
2017-07-04T00:48:40.764Z,14.40
2017-07-04T00:51:08.471Z,14.30
2017-07-04T00:53:35.904Z,14.30
2017-07-04T00:56:03.339Z,14.40
2017-07-04T00:58:31.060Z,14.40
2017-07-04T01:00:58.495Z,14.60
2017-07-04T01:03:25.930Z,14.80
2017-07-04T01:05:53.396Z,14.60
2017-07-04T01:08:20.828Z,14.60
2017-07-04T01:10:48.267Z,14.50
2017-07-04T01:13:15.735Z,14.60
2017-07-04T01:15:43.172Z,14.40
2017-07-04T01:18:10.607Z,14.40
2017-07-04T01:20:38.227Z,14.20
2017-07-04T01:23:05.669Z,14.20
2017-07-04T01:25:33.108Z,14.00
2017-07-04T01:28:00.556Z,14.00
2017-07-04T01:30:27.995Z,13.90
2017-07-04T01:32:55.440Z,13.80
2017-07-04T01:35:23.167Z,13.90
2017-07-04T01:37:50.621Z,14.10
2017-07-04T01:40:18.060Z,14.20
2017-07-04T01:42:45.523Z,14.10
2017-07-04T01:45:12.961Z,13.90
2017-07-04T01:47:40.399Z,14.00
2017-07-04T01:50:08.017Z,13.90
2017-07-04T01:52:35.458Z,13.90
2017-07-04T01:55:02.899Z,13.90
2017-07-04T01:57:30.368Z,13.90
2017-07-04T01:59:58.169Z,14.00
2017-07-04T02:02:25.646Z,13.90
2017-07-04T02:04:53.130Z,13.90
2017-07-04T02:07:20.606Z,14.00
2017-07-04T02:09:48.073Z,13.80
2017-07-04T02:12:15.570Z,13.90
2017-07-04T02:14:43.060Z,13.90
2017-07-04T02:17:10.540Z,13.70
2017-07-04T02:19:38.281Z,13.80
2017-07-04T02:22:05.758Z,13.50
2017-07-04T02:24:33.239Z,13.60
2017-07-04T02:27:00.989Z,13.50
2017-07-04T02:29:28.484Z,13.70
2017-07-04T02:31:55.953Z,13.50
2017-07-04T02:34:23.669Z,13.30
2017-07-04T02:36:51.133Z,13.30
2017-07-04T02:39:18.603Z,13.40
2017-07-04T02:41:46.095Z,13.40
2017-07-04T02:44:13.582Z,13.30
2017-07-04T02:46:41.050Z,13.30
2017-07-04T02:49:08.698Z,13.10
2017-07-04T02:51:36.174Z,13.00
2017-07-04T02:54:03.661Z,13.00
2017-07-04T02:56:31.154Z,12.90
2017-07-04T02:58:58.626Z,12.80
2017-07-04T03:01:26.056Z,13.00
2017-07-04T03:03:54.500Z,12.90
2017-07-04T03:06:21.930Z,12.60
2017-07-04T03:08:49.372Z,12.50
2017-07-04T03:11:16.839Z,12.30
2017-07-04T03:13:44.273Z,12.30
2017-07-04T03:16:11.711Z,12.40
2017-07-04T03:18:39.427Z,12.30
2017-07-04T03:21:06.858Z,12.10
2017-07-04T03:23:34.300Z,12.00
2017-07-04T03:26:01.767Z,12.00
2017-07-04T03:28:29.211Z,12.00
2017-07-04T03:30:56.650Z,11.90
2017-07-04T03:33:24.372Z,11.80
2017-07-04T03:35:51.807Z,11.70
2017-07-04T03:38:19.247Z,11.70
2017-07-04T03:40:46.721Z,11.70
2017-07-04T03:43:14.167Z,11.70
2017-07-04T03:45:41.599Z,11.70
2017-07-04T03:48:09.220Z,11.70
2017-07-04T03:50:36.647Z,11.70
2017-07-04T03:53:04.084Z,11.70
2017-07-04T03:55:31.787Z,11.60
2017-07-04T03:57:59.231Z,11.60
2017-07-04T04:00:26.667Z,11.70
2017-07-04T04:02:54.382Z,11.70
2017-07-04T04:05:21.820Z,11.90
2017-07-04T04:07:49.252Z,11.80
2017-07-04T04:10:16.716Z,11.90
2017-07-04T04:12:44.152Z,11.90
2017-07-04T04:15:11.596Z,12.00
2017-07-04T04:17:39.264Z,12.00
2017-07-04T04:20:06.695Z,12.10
2017-07-04T04:22:34.145Z,12.10
2017-07-04T04:25:01.603Z,12.00
2017-07-04T04:27:29.032Z,11.90
2017-07-04T04:29:56.471Z,11.90
2017-07-04T04:32:23.930Z,12.00
2017-07-04T04:34:51.375Z,12.00
2017-07-04T04:39:52.588Z,12.10
2017-07-04T04:42:20.018Z,12.10
2017-07-04T04:44:47.459Z,12.10
2017-07-04T04:47:14.915Z,12.10
2017-07-04T04:49:42.352Z,12.30
2017-07-04T04:52:09.806Z,12.30
2017-07-04T04:54:37.267Z,12.40
2017-07-04T04:57:04.703Z,12.40
2017-07-04T04:59:32.150Z,12.50
2017-07-04T05:01:59.615Z,12.50
2017-07-04T05:04:27.063Z,12.60
2017-07-04T05:06:54.510Z,12.60
2017-07-04T05:09:21.978Z,12.70
2017-07-04T05:11:49.430Z,12.80
2017-07-04T05:14:16.873Z,12.70
2017-07-04T05:16:44.362Z,12.70
2017-07-04T05:19:11.799Z,12.80
2017-07-04T05:21:39.244Z,13.00
2017-07-04T05:24:06.864Z,13.10
2017-07-04T05:26:34.307Z,13.10
2017-07-04T05:29:01.748Z,13.00
2017-07-04T05:31:29.211Z,12.90
2017-07-04T05:33:56.660Z,12.90
2017-07-04T05:36:24.098Z,13.00
2017-07-04T05:38:51.711Z,13.10
2017-07-04T05:41:19.184Z,13.20
2017-07-04T05:43:47.134Z,13.30
2017-07-04T05:46:14.577Z,13.40
2017-07-04T05:48:42.197Z,13.50
2017-07-04T05:51:09.633Z,13.50
2017-07-04T05:53:37.067Z,13.60
2017-07-04T05:56:05.485Z,13.60
2017-07-04T05:58:32.942Z,13.60
2017-07-04T06:01:00.371Z,13.70
2017-07-04T06:03:27.990Z,13.80
2017-07-04T06:05:55.771Z,14.00
2017-07-04T06:08:23.209Z,14.10
2017-07-04T06:10:50.665Z,14.10
2017-07-04T06:13:18.109Z,14.10
2017-07-04T06:15:45.557Z,14.10
2017-07-04T06:18:13.022Z,14.30
2017-07-04T06:20:40.464Z,14.40
2017-07-04T06:23:07.916Z,14.50
2017-07-04T06:25:35.630Z,14.60
2017-07-04T06:28:03.061Z,14.50
2017-07-04T06:30:30.503Z,14.60
2017-07-04T06:32:57.964Z,14.70
2017-07-04T06:35:25.407Z,14.70
2017-07-04T06:37:52.841Z,14.70
2017-07-04T06:40:20.316Z,14.90
2017-07-04T06:42:47.769Z,15.00
2017-07-04T06:45:15.212Z,15.20
2017-07-04T06:47:42.826Z,15.30
2017-07-04T06:50:10.277Z,15.20
2017-07-04T06:52:37.721Z,15.40
2017-07-04T06:55:05.907Z,15.40
2017-07-04T06:57:33.359Z,15.20
2017-07-04T07:00:00.791Z,15.50
2017-07-04T07:02:28.264Z,15.50
2017-07-04T07:04:55.716Z,15.50
2017-07-04T07:07:23.160Z,15.60
2017-07-04T07:09:51.083Z,15.70
2017-07-04T07:12:18.523Z,15.60
2017-07-04T07:14:45.964Z,15.40
2017-07-04T07:17:13.595Z,15.50
2017-07-04T07:19:41.036Z,15.50
2017-07-04T07:22:08.473Z,15.50
2017-07-04T07:24:35.946Z,15.50
2017-07-04T07:27:03.402Z,15.60
2017-07-04T07:29:30.846Z,15.40
2017-07-04T07:31:58.318Z,15.40
2017-07-04T07:34:25.755Z,15.50
2017-07-04T07:36:53.199Z,15.70
2017-07-04T07:39:20.901Z,15.80
2017-07-04T07:41:48.339Z,16.00
2017-07-04T07:44:15.780Z,16.30
2017-07-04T07:46:43.233Z,16.60
2017-07-04T07:49:10.671Z,16.80
2017-07-04T07:51:38.111Z,16.90
2017-07-04T07:54:05.586Z,16.40
2017-07-04T07:56:33.026Z,16.40
2017-07-04T07:59:00.455Z,16.50
2017-07-04T08:01:28.069Z,16.20
2017-07-04T08:03:55.511Z,15.90
2017-07-04T08:06:22.943Z,16.10
2017-07-04T08:08:50.403Z,16.10
2017-07-04T08:11:17.842Z,16.60
2017-07-04T08:13:45.276Z,17.00
2017-07-04T08:16:12.991Z,16.80
2017-07-04T08:18:40.440Z,16.60
2017-07-04T08:21:07.889Z,16.40
2017-07-04T08:23:35.357Z,16.40
2017-07-04T08:26:02.804Z,16.30
2017-07-04T08:28:30.256Z,16.40
2017-07-04T08:30:57.977Z,16.50
2017-07-04T08:33:25.405Z,16.50
2017-07-04T08:35:52.848Z,16.80
2017-07-04T08:38:20.312Z,17.10
2017-07-04T08:40:47.758Z,17.20
2017-07-04T08:43:15.201Z,17.70
2017-07-04T08:45:42.927Z,17.40
2017-07-04T08:48:10.365Z,17.10
2017-07-04T08:50:37.808Z,17.20
2017-07-04T08:53:05.268Z,17.40
2017-07-04T08:55:32.703Z,17.40
2017-07-04T08:58:00.150Z,17.30
2017-07-04T09:00:27.861Z,17.40
2017-07-04T09:02:55.296Z,17.60
2017-07-04T09:05:22.739Z,18.10
2017-07-04T09:07:50.365Z,17.80
2017-07-04T09:10:17.805Z,17.90
2017-07-04T09:12:45.240Z,18.00
2017-07-04T09:15:12.956Z,18.20
2017-07-04T09:17:40.400Z,18.70
2017-07-04T09:20:07.840Z,18.10
2017-07-04T09:22:35.308Z,18.40
2017-07-04T09:25:02.744Z,17.80
2017-07-04T09:27:30.180Z,17.70
2017-07-04T09:29:57.635Z,18.10
2017-07-04T09:32:25.887Z,17.90
2017-07-04T09:34:53.347Z,17.90
2017-07-04T09:37:21.077Z,18.10
2017-07-04T09:39:48.603Z,18.40
2017-07-04T09:42:16.053Z,18.50
2017-07-04T09:44:43.530Z,18.90
2017-07-04T09:47:10.968Z,18.90
2017-07-04T09:49:38.432Z,18.60
2017-07-04T09:52:05.904Z,18.90
2017-07-04T09:54:33.334Z,18.90
2017-07-04T09:57:00.786Z,19.10
2017-07-04T09:59:28.328Z,19.00
2017-07-04T10:01:55.759Z,19.10
2017-07-04T10:04:23.204Z,18.80
2017-07-04T10:06:50.656Z,19.00
2017-07-04T10:09:18.096Z,19.20
2017-07-04T10:11:45.540Z,18.90
2017-07-04T10:14:13.428Z,18.30
2017-07-04T10:16:40.871Z,18.40
2017-07-04T10:19:08.319Z,19.10
2017-07-04T10:21:35.918Z,19.30
2017-07-04T10:24:03.365Z,18.90
2017-07-04T10:26:30.804Z,18.60
2017-07-04T10:28:58.265Z,18.70
2017-07-04T10:31:25.718Z,18.50
2017-07-04T10:33:53.164Z,18.50
2017-07-04T10:36:20.643Z,19.10
2017-07-04T10:38:48.089Z,19.90
2017-07-04T10:41:15.528Z,20.20
2017-07-04T10:43:43.001Z,20.00
2017-07-04T10:46:10.447Z,19.60
2017-07-04T10:48:37.900Z,19.30
2017-07-04T10:51:05.535Z,18.80
2017-07-04T10:53:32.990Z,18.80
2017-07-04T10:56:00.428Z,18.90
2017-07-04T10:58:27.906Z,19.00
2017-07-04T11:00:55.347Z,18.90
2017-07-04T11:03:22.788Z,18.90
2017-07-04T11:05:50.345Z,19.10
2017-07-04T11:08:17.792Z,19.40
2017-07-04T11:10:45.231Z,19.00
2017-07-04T11:13:12.948Z,18.80
2017-07-04T11:15:40.397Z,19.30
2017-07-04T11:18:07.840Z,19.80
2017-07-04T11:20:35.548Z,19.80
2017-07-04T11:23:02.998Z,19.90
2017-07-04T11:25:30.444Z,19.40
2017-07-04T11:27:57.931Z,19.90
2017-07-04T11:30:25.368Z,20.00
2017-07-04T11:32:52.815Z,20.70
2017-07-04T11:35:20.343Z,20.80
2017-07-04T11:37:47.779Z,20.30
2017-07-04T11:40:15.218Z,20.40
2017-07-04T11:42:42.708Z,20.10
2017-07-04T11:45:10.140Z,19.10
2017-07-04T11:47:37.595Z,19.30
2017-07-04T11:50:05.066Z,19.20
2017-07-04T11:52:32.504Z,19.40
2017-07-04T11:54:59.940Z,19.40
2017-07-04T11:57:27.516Z,18.90
2017-07-04T11:59:54.952Z,19.60
2017-07-04T12:02:22.387Z,20.20
2017-07-04T12:04:49.845Z,19.90
2017-07-04T12:07:17.295Z,19.40
2017-07-04T12:09:44.746Z,19.40
2017-07-04T12:12:12.468Z,19.30
2017-07-04T12:14:39.921Z,19.50
2017-07-04T12:17:07.426Z,19.50
2017-07-04T12:19:34.891Z,19.40
2017-07-04T12:22:02.346Z,19.50
2017-07-04T12:24:29.798Z,19.30
2017-07-04T12:26:57.269Z,19.50
2017-07-04T12:29:24.723Z,19.70
2017-07-04T12:31:52.186Z,19.60
2017-07-04T12:34:19.917Z,19.10
2017-07-04T12:36:47.366Z,19.50
2017-07-04T12:39:14.824Z,19.80
2017-07-04T12:41:42.290Z,20.20
2017-07-04T12:44:09.750Z,20.50
2017-07-04T12:46:37.214Z,22.20
2017-07-04T12:49:04.761Z,23.40
2017-07-04T12:51:32.195Z,20.80
2017-07-04T12:53:59.646Z,20.00
2017-07-04T12:56:27.114Z,20.60
2017-07-04T12:58:54.557Z,21.10
2017-07-04T13:01:22.000Z,24.00
2017-07-04T13:03:49.471Z,22.90
2017-07-04T13:06:16.926Z,21.50
2017-07-04T13:08:44.387Z,21.80
2017-07-04T13:11:12.843Z,24.10
2017-07-04T13:13:40.287Z,24.10
2017-07-04T13:16:07.736Z,27.00
2017-07-04T13:18:35.214Z,24.70
2017-07-04T13:21:02.667Z,22.40
2017-07-04T13:23:30.103Z,21.00
2017-07-04T13:25:57.569Z,20.60
2017-07-04T13:28:25.030Z,20.50
2017-07-04T13:30:52.475Z,20.20
2017-07-04T13:33:20.108Z,20.20
2017-07-04T13:35:47.541Z,20.30
2017-07-04T13:38:15.000Z,20.20
2017-07-04T13:40:42.463Z,21.00
2017-07-04T13:43:09.927Z,20.80
2017-07-04T13:45:37.368Z,20.40
2017-07-04T13:48:05.063Z,20.50
2017-07-04T13:50:32.514Z,20.60
2017-07-04T13:53:00.464Z,23.10
2017-07-04T13:55:28.083Z,23.10
2017-07-04T13:57:55.536Z,23.60
2017-07-04T14:00:22.974Z,23.90
2017-07-04T14:02:50.461Z,24.40
2017-07-04T14:05:17.902Z,22.80
2017-07-04T14:07:45.355Z,21.60
2017-07-04T14:10:12.912Z,21.00
2017-07-04T14:12:40.349Z,21.30
2017-07-04T14:15:07.803Z,20.80
2017-07-04T14:17:35.410Z,19.80
2017-07-04T14:20:02.868Z,19.30
2017-07-04T14:22:30.298Z,19.50
2017-07-04T14:24:57.982Z,19.60
2017-07-04T14:27:25.419Z,19.90
2017-07-04T14:29:52.855Z,19.70
2017-07-04T14:32:20.340Z,19.80
2017-07-04T14:34:47.775Z,19.60
2017-07-04T14:37:15.208Z,20.10
2017-07-04T14:39:42.664Z,20.60
2017-07-04T14:44:44.260Z,20.30
2017-07-04T14:47:11.704Z,20.70
2017-07-04T14:49:39.168Z,20.90
2017-07-04T14:52:06.630Z,20.60
2017-07-04T14:54:34.067Z,20.70
2017-07-04T14:57:01.522Z,19.80
2017-07-04T14:59:29.002Z,19.70
2017-07-04T15:01:56.451Z,19.90
2017-07-04T15:04:23.898Z,19.90
2017-07-04T15:06:51.605Z,20.00
2017-07-04T15:09:19.046Z,19.60
2017-07-04T15:11:46.487Z,19.70
2017-07-04T15:14:13.964Z,20.00
2017-07-04T15:16:41.432Z,19.80
2017-07-04T15:19:08.863Z,19.50
2017-07-04T15:21:36.347Z,19.50
2017-07-04T15:24:04.148Z,19.80
2017-07-04T15:26:31.591Z,19.20
2017-07-04T15:28:59.074Z,19.30
2017-07-04T15:31:26.872Z,19.40
2017-07-04T15:33:54.313Z,19.60
2017-07-04T15:36:22.057Z,19.60
2017-07-04T15:38:49.506Z,19.50
2017-07-04T15:41:16.946Z,19.10
2017-07-04T15:43:44.427Z,19.30
2017-07-04T15:46:12.100Z,19.70
2017-07-04T15:48:39.761Z,19.20
2017-07-04T15:51:07.204Z,19.00
2017-07-04T15:53:34.649Z,19.00
2017-07-04T15:56:02.143Z,19.00
2017-07-04T15:58:29.759Z,18.60
2017-07-04T16:00:57.213Z,18.80
2017-07-04T16:03:25.298Z,19.00
2017-07-04T16:05:53.021Z,19.00
2017-07-04T16:08:20.463Z,18.80
2017-07-04T16:10:47.922Z,18.70
2017-07-04T16:13:15.623Z,18.80
2017-07-04T16:15:43.082Z,18.90
2017-07-04T16:18:10.548Z,19.00
2017-07-04T16:20:38.248Z,18.90
2017-07-04T16:23:05.752Z,18.90
2017-07-04T16:25:33.226Z,18.80
2017-07-04T16:28:01.195Z,18.60
2017-07-04T16:30:28.631Z,18.50
2017-07-04T16:32:56.088Z,18.50
2017-07-04T16:35:23.729Z,18.50
2017-07-04T16:37:51.195Z,18.60
2017-07-04T16:40:18.654Z,18.80
2017-07-04T16:42:46.222Z,18.60
2017-07-04T16:45:13.662Z,18.20
2017-07-04T16:47:41.105Z,18.50
2017-07-04T16:50:08.983Z,18.60
2017-07-04T16:52:36.435Z,18.70
2017-07-04T16:55:03.898Z,18.70
2017-07-04T16:57:31.354Z,18.60
2017-07-04T16:59:58.793Z,18.60
2017-07-04T17:02:26.253Z,18.60
2017-07-04T17:04:53.872Z,18.40
2017-07-04T17:07:21.327Z,18.40
2017-07-04T17:09:48.806Z,18.50
2017-07-04T17:12:16.269Z,18.40
2017-07-04T17:14:43.711Z,18.20
2017-07-04T17:17:11.159Z,18.20
2017-07-04T17:19:39.710Z,18.20
2017-07-04T17:22:07.149Z,18.00
2017-07-04T17:24:34.580Z,18.10
2017-07-04T17:27:02.039Z,18.20
2017-07-04T17:29:29.483Z,18.10
2017-07-04T17:31:56.923Z,18.10
2017-07-04T17:34:24.765Z,18.20
2017-07-04T17:36:52.198Z,18.20
2017-07-04T17:39:19.669Z,18.10
2017-07-04T17:41:47.517Z,18.00
2017-07-04T17:44:14.978Z,18.00
2017-07-04T17:46:44.522Z,18.00
2017-07-04T17:49:12.237Z,17.80
2017-07-04T17:51:39.683Z,17.40
2017-07-04T17:54:07.125Z,17.60
2017-07-04T17:56:34.848Z,17.60
2017-07-04T17:59:02.288Z,17.60
2017-07-04T18:01:29.749Z,17.60
2017-07-04T18:03:57.216Z,17.50
2017-07-04T18:06:34.949Z,17.40
2017-07-04T18:09:02.431Z,17.50
2017-07-04T18:11:29.883Z,17.60
2017-07-04T18:13:57.327Z,17.70
2017-07-04T18:16:24.800Z,17.60
2017-07-04T18:18:52.258Z,17.60
2017-07-04T18:21:20.053Z,17.60
2017-07-04T18:23:48.509Z,17.70
2017-07-04T18:26:15.985Z,17.70
2017-07-04T18:28:43.441Z,17.50
2017-07-04T18:31:11.105Z,17.50
2017-07-04T18:33:38.575Z,17.30
2017-07-04T18:36:06.034Z,17.30
2017-07-04T18:38:33.721Z,17.20
2017-07-04T18:41:01.408Z,17.20
2017-07-04T18:43:28.864Z,17.20
2017-07-04T18:45:56.314Z,17.20
2017-07-04T18:48:24.165Z,17.20
2017-07-04T18:50:51.609Z,17.10
2017-07-04T18:53:19.052Z,17.10
2017-07-04T18:55:46.632Z,17.10
2017-07-04T18:58:14.504Z,17.00
2017-07-04T19:00:41.949Z,17.10
2017-07-04T19:03:10.010Z,17.00
2017-07-04T19:05:37.477Z,17.10
2017-07-04T19:08:04.961Z,17.00
2017-07-04T19:10:32.442Z,17.00
2017-07-04T19:12:59.897Z,17.10
2017-07-04T19:15:27.384Z,17.10
2017-07-04T19:17:55.110Z,16.90
2017-07-04T19:20:22.694Z,16.80
2017-07-04T19:22:51.117Z,16.90
2017-07-04T19:25:18.567Z,16.80
2017-07-04T19:27:46.050Z,16.80
2017-07-04T19:30:15.983Z,16.70
2017-07-04T19:32:43.464Z,16.80
2017-07-04T19:35:10.932Z,16.80
2017-07-04T19:37:38.395Z,16.70
2017-07-04T19:40:05.968Z,16.70
2017-07-04T19:42:33.469Z,16.70
2017-07-04T19:45:01.166Z,16.70
2017-07-04T19:47:28.639Z,16.80
2017-07-04T19:49:56.237Z,16.80
2017-07-04T19:52:23.736Z,16.70
2017-07-04T19:54:51.191Z,16.70
2017-07-04T19:57:18.649Z,16.70
2017-07-04T19:59:46.111Z,16.80
2017-07-04T20:02:13.568Z,16.80
2017-07-04T20:04:41.146Z,16.70
2017-07-04T20:07:08.621Z,16.70
2017-07-04T20:09:36.084Z,16.80
2017-07-04T20:12:03.563Z,16.60
2017-07-04T20:14:31.038Z,16.50
2017-07-04T20:16:58.524Z,16.40
2017-07-04T20:19:26.158Z,16.30
2017-07-04T20:21:53.618Z,16.30
2017-07-04T20:24:21.091Z,16.30
2017-07-04T20:26:48.662Z,16.30
2017-07-04T20:29:16.128Z,16.40
2017-07-04T20:31:43.584Z,16.30
2017-07-04T20:34:11.073Z,16.40
2017-07-04T20:36:38.511Z,16.40
2017-07-04T20:39:05.960Z,16.30
2017-07-04T20:41:33.596Z,16.40
2017-07-04T20:44:01.062Z,16.50
2017-07-04T20:46:28.858Z,16.50
2017-07-04T20:48:56.327Z,16.50
2017-07-04T20:51:23.773Z,16.60
2017-07-04T20:53:51.226Z,16.50
2017-07-04T20:56:18.782Z,16.50
2017-07-04T20:58:46.236Z,16.40
2017-07-04T21:01:13.674Z,16.50
2017-07-04T21:03:41.395Z,16.50
2017-07-04T21:06:08.846Z,16.40
2017-07-04T21:08:36.302Z,16.30
2017-07-04T21:11:04.981Z,16.30
2017-07-04T21:13:32.437Z,16.40
2017-07-04T21:16:00.089Z,16.30
2017-07-04T21:18:27.542Z,16.20
2017-07-04T21:20:54.984Z,16.30
2017-07-04T21:23:22.610Z,16.10
2017-07-04T21:25:50.072Z,15.90
2017-07-04T21:28:17.501Z,16.00
2017-07-04T21:30:45.068Z,16.00
2017-07-04T21:33:13.630Z,16.00
2017-07-04T21:35:41.963Z,15.90
2017-07-04T21:38:09.684Z,15.90
2017-07-04T21:40:37.146Z,15.90
2017-07-04T21:43:04.587Z,15.90
2017-07-04T21:45:32.292Z,15.90
2017-07-04T21:47:59.740Z,15.90
2017-07-04T21:50:27.196Z,15.80
2017-07-04T21:52:54.803Z,15.90
2017-07-04T21:55:23.190Z,15.80
2017-07-04T21:57:50.636Z,15.80
2017-07-04T22:00:18.111Z,15.80
2017-07-04T22:02:45.552Z,16.00
2017-07-04T22:05:13.013Z,15.90
2017-07-04T22:07:40.700Z,15.90
2017-07-04T22:10:08.157Z,15.90
2017-07-04T22:12:35.587Z,15.80
2017-07-04T22:15:03.066Z,15.80
2017-07-04T22:17:30.583Z,15.90
2017-07-04T22:19:58.044Z,16.00
2017-07-04T22:22:25.499Z,16.00
2017-07-04T22:24:52.941Z,16.10
2017-07-04T22:27:20.398Z,15.90
2017-07-04T22:29:47.871Z,15.60
2017-07-04T22:32:15.312Z,15.80
2017-07-04T22:34:42.752Z,15.80
2017-07-04T22:37:10.303Z,15.60
2017-07-04T22:39:37.751Z,15.70
2017-07-04T22:42:05.197Z,15.80
2017-07-04T22:44:32.820Z,15.80
2017-07-04T22:47:00.264Z,15.60
2017-07-04T22:49:27.721Z,15.70
2017-07-04T22:51:55.471Z,15.60
2017-07-04T22:54:22.907Z,15.60
2017-07-04T22:56:50.559Z,15.60
2017-07-04T22:59:18.376Z,15.60
2017-07-04T23:01:45.803Z,15.70
2017-07-04T23:04:13.247Z,15.70
2017-07-04T23:06:41.061Z,15.60
2017-07-04T23:09:08.489Z,15.50
2017-07-04T23:11:35.951Z,15.60
2017-07-04T23:14:03.568Z,15.60
2017-07-04T23:16:31.031Z,15.60
2017-07-04T23:18:58.831Z,15.60
2017-07-04T23:21:26.309Z,15.60
2017-07-04T23:23:53.748Z,15.60
2017-07-04T23:26:21.184Z,15.50
2017-07-04T23:28:48.814Z,15.50
2017-07-04T23:31:16.256Z,15.40
2017-07-04T23:33:43.715Z,15.50
2017-07-04T23:36:11.193Z,15.60
2017-07-04T23:38:38.642Z,15.60
2017-07-04T23:41:06.083Z,15.60
2017-07-04T23:43:33.704Z,15.60
2017-07-04T23:46:01.155Z,15.60
2017-07-04T23:48:28.592Z,15.70
2017-07-04T23:50:56.048Z,15.70
2017-07-04T23:53:23.504Z,15.60
2017-07-04T23:55:50.959Z,15.70
2017-07-04T23:58:18.404Z,15.60
